Rubicon, Wisconsin
Current Conditions -  °F | °C
As of 2:35 AM on Saturday 25 Oct 2014 (Local Time) from KUNU Reporting Station
Haze Haze  
Wind Chill: 52°   Ceiling: 800
Heat Index: 52°   Visibility: 1.7mi
Dew Point: 52°   Wind: 7mph
Humidity: 98%   Direction: 240°WSW
Pressure: 29.88"   Gusts: NA
Location:  43.34°N, 88.46°W
Report Text: KUNU 250735Z AUTO 24006KT 1 3/4SM BR OVC008 11/11 A2988 RMK AO2 T01130110
Loading
Personal Weather Stations






























Interactive Weather Map
Tropical Storm Tracking
New forecast layout! Learn more

10-Day Weather Forecast

Advertisements
Track Severe Weather on mobile